createdAt,value
2022-08-17T00:00:49.594Z,70.47
2022-08-17T00:04:20.282Z,70.41
2022-08-17T00:07:48.261Z,70.43
2022-08-17T00:11:19.845Z,70.52
2022-08-17T00:14:47.165Z,70.67
2022-08-17T00:19:00.918Z,70.65
2022-08-17T00:22:33.912Z,70.55
2022-08-17T00:25:52.282Z,70.59
2022-08-17T00:29:19.615Z,70.58
2022-08-17T00:33:12.228Z,70.62
2022-08-17T00:36:37.409Z,70.60
2022-08-17T00:40:05.612Z,70.64
2022-08-17T00:43:42.224Z,70.56
2022-08-17T00:47:10.029Z,70.51
2022-08-17T00:50:40.215Z,70.61
2022-08-17T00:54:12.737Z,70.49
2022-08-17T00:57:44.617Z,70.51
2022-08-17T01:01:21.678Z,70.42
2022-08-17T01:04:54.310Z,70.64
2022-08-17T01:08:25.715Z,70.68
2022-08-17T01:11:53.737Z,70.71
2022-08-17T01:15:20.977Z,71.04
2022-08-17T01:18:50.588Z,71.14
2022-08-17T01:22:24.491Z,71.01
2022-08-17T01:25:54.234Z,70.94
2022-08-17T01:29:23.466Z,70.93
2022-08-17T01:32:50.504Z,70.95
2022-08-17T01:36:18.597Z,70.78
2022-08-17T01:39:50.608Z,71.00
2022-08-17T01:43:23.150Z,71.13
2022-08-17T01:46:50.527Z,71.19
2022-08-17T01:50:23.705Z,71.12
2022-08-17T01:53:53.547Z,71.14
2022-08-17T01:57:20.953Z,71.17
2022-08-17T02:01:01.082Z,71.21
2022-08-17T02:04:28.667Z,71.23
2022-08-17T02:08:00.385Z,71.34
2022-08-17T02:11:27.735Z,71.40
2022-08-17T02:14:55.599Z,71.32
2022-08-17T02:18:22.951Z,71.23
2022-08-17T02:21:52.881Z,71.34
2022-08-17T02:25:22.127Z,71.34
2022-08-17T02:28:51.232Z,71.26
2022-08-17T02:32:28.360Z,71.33
2022-08-17T02:35:55.925Z,71.39
2022-08-17T02:39:23.079Z,71.38
2022-08-17T02:42:50.524Z,71.42
2022-08-17T02:46:19.974Z,71.45
2022-08-17T02:49:54.231Z,71.52
2022-08-17T02:53:22.940Z,71.44
2022-08-17T02:56:56.858Z,71.42
2022-08-17T03:00:29.241Z,71.57
2022-08-17T03:03:57.581Z,71.66
2022-08-17T03:07:24.547Z,71.73
2022-08-17T03:10:51.751Z,71.71
2022-08-17T03:14:19.899Z,71.88
2022-08-17T03:18:01.980Z,71.82
2022-08-17T03:21:29.183Z,71.80
2022-08-17T03:24:56.557Z,71.78
2022-08-17T03:28:25.207Z,71.71
2022-08-17T03:31:52.775Z,71.75
2022-08-17T03:35:22.493Z,71.63
2022-08-17T03:38:49.820Z,71.84
2022-08-17T03:42:31.962Z,71.69
2022-08-17T03:46:28.178Z,71.84
2022-08-17T03:50:33.904Z,71.87
2022-08-17T03:54:19.819Z,71.92
2022-08-17T03:57:49.262Z,72.03
2022-08-17T04:01:18.245Z,71.86
2022-08-17T04:04:46.388Z,71.92
2022-08-17T04:08:14.744Z,71.84
2022-08-17T04:11:42.298Z,71.93
2022-08-17T04:15:13.331Z,72.03
2022-08-17T04:18:40.154Z,71.87
2022-08-17T04:22:07.753Z,72.04
2022-08-17T04:25:37.081Z,72.08
2022-08-17T04:29:04.217Z,72.23
2022-08-17T04:33:03.902Z,72.17
2022-08-17T04:36:19.963Z,72.24
2022-08-17T04:40:06.826Z,72.18
2022-08-17T04:43:35.737Z,72.22
2022-08-17T04:47:03.166Z,72.24
2022-08-17T04:50:30.365Z,72.33
2022-08-17T04:54:00.882Z,72.59
2022-08-17T04:57:28.245Z,72.60
2022-08-17T05:00:57.114Z,72.65
2022-08-17T05:04:34.522Z,72.71
2022-08-17T05:08:05.784Z,72.64
2022-08-17T05:11:34.307Z,72.72
2022-08-17T05:15:01.852Z,72.86
2022-08-17T05:18:30.958Z,72.94
2022-08-17T05:21:58.267Z,73.10
2022-08-17T05:25:29.111Z,73.24
2022-08-17T05:29:02.743Z,73.34
2022-08-17T05:32:38.951Z,73.15
2022-08-17T05:36:11.113Z,73.12
2022-08-17T05:39:58.788Z,73.28
2022-08-17T05:43:28.107Z,73.31
2022-08-17T05:46:56.819Z,73.41
2022-08-17T05:50:29.810Z,73.34
2022-08-17T05:54:08.841Z,73.30
2022-08-17T05:58:02.954Z,73.40
2022-08-17T06:01:41.130Z,73.38
2022-08-17T06:05:26.047Z,73.30
2022-08-17T06:08:59.070Z,73.25
2022-08-17T06:12:42.611Z,73.20
2022-08-17T06:16:25.882Z,73.36
2022-08-17T06:20:04.768Z,73.25
2022-08-17T06:23:36.176Z,73.30
2022-08-17T06:27:09.438Z,73.21
2022-08-17T06:30:59.219Z,73.30
2022-08-17T06:34:28.262Z,73.49
2022-08-17T06:38:10.709Z,73.51
2022-08-17T06:43:02.569Z,73.43
2022-08-17T06:46:04.559Z,73.55
2022-08-17T06:49:42.157Z,73.56
2022-08-17T06:53:22.732Z,73.30
2022-08-17T06:56:55.504Z,73.18
2022-08-17T07:00:22.618Z,73.07
2022-08-17T07:03:55.990Z,73.17
2022-08-17T07:07:43.195Z,73.07
2022-08-17T07:11:17.576Z,73.18
2022-08-17T07:14:52.178Z,72.96
2022-08-17T07:18:19.940Z,72.79
2022-08-17T07:21:55.288Z,72.72
2022-08-17T07:25:24.713Z,72.77
2022-08-17T07:28:56.498Z,72.65
2022-08-17T07:32:28.317Z,72.47
2022-08-17T07:35:58.536Z,72.47
2022-08-17T07:39:30.692Z,72.08
2022-08-17T07:43:23.307Z,71.80
2022-08-17T07:47:24.445Z,71.69
2022-08-17T07:50:53.571Z,71.81
2022-08-17T07:54:29.290Z,71.62
2022-08-17T07:58:02.188Z,71.38
2022-08-17T08:01:28.127Z,70.88
2022-08-17T08:05:48.837Z,70.80
2022-08-17T08:09:09.115Z,71.00
2022-08-17T08:12:45.479Z,71.06
2022-08-17T08:16:28.435Z,71.02
2022-08-17T08:19:55.846Z,70.86
2022-08-17T08:23:35.331Z,70.70
2022-08-17T08:27:09.682Z,70.67
2022-08-17T08:30:48.335Z,70.42
2022-08-17T08:34:53.175Z,70.37
2022-08-17T08:38:22.644Z,70.24
2022-08-17T08:42:02.175Z,69.78
2022-08-17T08:45:38.659Z,69.62
2022-08-17T08:50:02.742Z,69.47
2022-08-17T08:53:37.120Z,69.28
2022-08-17T08:57:25.523Z,69.07
2022-08-17T09:01:00.812Z,68.70
2022-08-17T09:05:13.402Z,68.56
2022-08-17T09:08:55.900Z,68.11
2022-08-17T09:12:30.105Z,67.85
2022-08-17T09:16:01.909Z,67.51
2022-08-17T09:19:38.529Z,67.37
2022-08-17T09:23:09.109Z,67.02
2022-08-17T09:26:43.433Z,66.89
2022-08-17T09:30:15.797Z,66.46
2022-08-17T09:33:48.582Z,66.19
2022-08-17T09:37:21.630Z,65.83
2022-08-17T09:40:54.603Z,65.81
2022-08-17T09:44:38.131Z,65.75
2022-08-17T09:48:14.657Z,65.05
2022-08-17T09:51:50.365Z,64.58
2022-08-17T09:55:18.916Z,64.13
2022-08-17T09:59:04.535Z,63.87
2022-08-17T10:03:16.830Z,63.60
2022-08-17T10:06:59.572Z,63.68
2022-08-17T10:10:43.109Z,63.30
2022-08-17T10:14:37.979Z,62.90
2022-08-17T10:18:31.801Z,62.61
2022-08-17T10:22:34.994Z,62.34
2022-08-17T10:26:15.957Z,62.03
2022-08-17T10:29:49.922Z,61.73
2022-08-17T10:33:23.977Z,61.20
2022-08-17T10:37:47.113Z,60.74
2022-08-17T10:41:33.904Z,60.45
2022-08-17T10:45:19.147Z,60.11
2022-08-17T10:49:06.194Z,59.72
2022-08-17T10:52:52.233Z,59.47
2022-08-17T10:56:41.093Z,59.32
2022-08-17T11:00:28.189Z,59.28
2022-08-17T11:03:58.671Z,58.73
2022-08-17T11:07:44.134Z,58.31
2022-08-17T11:11:43.343Z,58.01
2022-08-17T11:15:44.031Z,57.69
2022-08-17T11:19:41.670Z,57.53
2022-08-17T11:23:34.149Z,57.11
2022-08-17T11:27:12.227Z,56.63
2022-08-17T11:30:51.617Z,56.20
2022-08-17T11:34:23.699Z,55.95
2022-08-17T11:38:01.081Z,55.74
2022-08-17T11:41:37.943Z,55.47
2022-08-17T11:45:31.898Z,55.31
2022-08-17T11:49:35.208Z,54.90
2022-08-17T11:53:02.217Z,54.17
2022-08-17T11:56:44.550Z,54.10
2022-08-17T12:00:55.106Z,54.22
2022-08-17T12:04:32.038Z,53.72
2022-08-17T12:08:12.744Z,53.46
2022-08-17T12:11:56.359Z,52.98
2022-08-17T12:15:42.935Z,52.29
2022-08-17T12:19:23.019Z,52.33
2022-08-17T12:23:01.480Z,51.97
2022-08-17T12:26:33.030Z,51.82
2022-08-17T12:30:01.852Z,51.55
2022-08-17T12:33:29.173Z,51.32
2022-08-17T12:37:01.842Z,50.79
2022-08-17T12:40:32.770Z,50.64
2022-08-17T12:44:02.999Z,49.93
2022-08-17T12:47:32.172Z,49.31
2022-08-17T12:51:05.019Z,49.16
2022-08-17T12:54:43.652Z,48.88
2022-08-17T12:58:18.573Z,48.95
2022-08-17T13:01:47.946Z,48.34
2022-08-17T13:05:25.542Z,48.37
2022-08-17T13:08:53.125Z,48.01
2022-08-17T13:12:29.679Z,47.32
2022-08-17T13:15:59.876Z,46.72
2022-08-17T13:19:29.842Z,46.79
2022-08-17T13:23:12.629Z,46.38
2022-08-17T13:26:45.878Z,45.86
2022-08-17T13:30:22.151Z,45.72
2022-08-17T13:33:49.536Z,45.50
2022-08-17T13:37:34.556Z,45.02
2022-08-17T13:41:01.757Z,44.70
2022-08-17T13:44:41.496Z,44.33
2022-08-17T13:48:14.891Z,43.77
2022-08-17T13:51:50.492Z,43.52
2022-08-17T13:55:24.071Z,43.14
2022-08-17T13:58:58.489Z,42.78
2022-08-17T14:02:28.524Z,42.53
2022-08-17T14:05:58.839Z,42.12
2022-08-17T14:09:33.562Z,41.79
2022-08-17T14:13:03.906Z,41.64
2022-08-17T14:16:31.036Z,41.21
2022-08-17T14:19:58.743Z,40.97
2022-08-17T14:23:25.429Z,40.61
2022-08-17T14:26:53.898Z,40.22
2022-08-17T14:30:21.578Z,39.99
2022-08-17T14:33:48.905Z,39.97
2022-08-17T14:37:15.746Z,39.67
2022-08-17T14:40:43.315Z,39.59
2022-08-17T14:44:13.128Z,38.84
2022-08-17T14:47:42.701Z,38.72
2022-08-17T14:51:12.157Z,38.67
2022-08-17T14:54:42.515Z,38.78
2022-08-17T14:58:13.447Z,38.78
2022-08-17T15:01:41.480Z,38.42
2022-08-17T15:05:10.305Z,38.03
2022-08-17T15:08:38.125Z,37.88
2022-08-17T15:12:06.788Z,37.45
2022-08-17T15:15:34.412Z,37.31
2022-08-17T15:19:01.466Z,37.37
2022-08-17T15:22:29.852Z,36.67
2022-08-17T15:25:57.876Z,36.68
2022-08-17T15:29:25.743Z,36.81
2022-08-17T15:32:55.149Z,36.67
2022-08-17T15:36:23.395Z,36.97
2022-08-17T15:39:50.213Z,37.12
2022-08-17T15:43:24.842Z,37.31
2022-08-17T15:46:54.228Z,37.41
2022-08-17T15:50:21.954Z,37.35
2022-08-17T15:53:52.494Z,37.52
2022-08-17T15:57:20.373Z,37.90
2022-08-17T16:00:52.966Z,38.14
2022-08-17T16:04:34.386Z,38.58
2022-08-17T16:08:01.897Z,38.62
2022-08-17T16:11:29.483Z,38.86
2022-08-17T16:14:59.035Z,39.20
2022-08-17T16:18:32.055Z,39.21
2022-08-17T16:21:59.560Z,39.55
2022-08-17T16:25:38.290Z,39.85
2022-08-17T16:29:18.634Z,39.89
2022-08-17T16:32:45.886Z,40.29
2022-08-17T16:36:13.266Z,40.41
2022-08-17T16:39:42.508Z,40.78
2022-08-17T16:43:12.644Z,41.10
2022-08-17T16:46:40.631Z,41.33
2022-08-17T16:50:16.241Z,41.55
2022-08-17T16:53:44.789Z,42.05
2022-08-17T16:57:14.353Z,42.18
2022-08-17T17:00:42.657Z,42.44
2022-08-17T17:04:19.123Z,42.71
2022-08-17T17:08:01.153Z,42.97
2022-08-17T17:11:34.134Z,43.27
2022-08-17T17:15:01.978Z,43.52
2022-08-17T17:18:40.644Z,43.62
2022-08-17T17:22:15.343Z,43.78
2022-08-17T17:26:01.415Z,44.07
2022-08-17T17:29:48.125Z,44.20
2022-08-17T17:33:32.875Z,44.35
2022-08-17T17:37:11.898Z,44.59
2022-08-17T17:40:46.605Z,44.76
2022-08-17T17:44:19.854Z,45.07
2022-08-17T17:47:48.829Z,45.33
2022-08-17T17:51:58.156Z,45.45
2022-08-17T17:55:27.299Z,45.64
2022-08-17T17:59:03.417Z,45.77
2022-08-17T18:02:52.765Z,46.04
2022-08-17T18:06:36.649Z,46.15
2022-08-17T18:10:19.740Z,46.54
2022-08-17T18:14:16.067Z,46.65
2022-08-17T18:18:03.995Z,47.13
2022-08-17T18:21:39.909Z,47.06
2022-08-17T18:25:46.424Z,47.31
2022-08-17T18:29:37.562Z,47.43
2022-08-17T18:33:25.341Z,48.14
2022-08-17T18:36:58.239Z,48.26
2022-08-17T18:40:40.817Z,48.42
2022-08-17T18:44:30.254Z,48.54
2022-08-17T18:48:01.235Z,48.88
2022-08-17T18:51:42.269Z,49.21
2022-08-17T18:55:15.287Z,49.45
2022-08-17T18:58:43.734Z,49.46
2022-08-17T19:02:43.813Z,49.80
2022-08-17T19:06:24.368Z,50.04
2022-08-17T19:09:58.957Z,49.98
2022-08-17T19:13:32.366Z,50.24
2022-08-17T19:17:05.095Z,50.53
2022-08-17T19:20:45.131Z,50.62
2022-08-17T19:24:19.810Z,50.96
2022-08-17T19:27:57.659Z,51.14
2022-08-17T19:31:29.621Z,51.39
2022-08-17T19:35:01.091Z,51.42
2022-08-17T19:38:42.000Z,51.74
2022-08-17T19:42:18.215Z,51.93
2022-08-17T19:45:56.348Z,52.16
2022-08-17T19:49:40.892Z,52.31
2022-08-17T19:53:20.253Z,52.57
2022-08-17T19:56:56.931Z,52.76
2022-08-17T20:00:24.222Z,52.95
2022-08-17T20:04:00.313Z,53.09
2022-08-17T20:07:41.479Z,53.18
2022-08-17T20:11:12.117Z,53.50
2022-08-17T20:14:53.612Z,53.73
2022-08-17T20:18:29.053Z,53.83
2022-08-17T20:22:00.789Z,53.93
2022-08-17T20:25:37.593Z,54.02
2022-08-17T20:29:37.472Z,54.19
2022-08-17T20:33:23.018Z,54.36
2022-08-17T20:37:05.351Z,54.42
2022-08-17T20:40:38.722Z,54.64
2022-08-17T20:44:08.005Z,54.83
2022-08-17T20:47:55.165Z,54.99
2022-08-17T20:51:40.277Z,55.09
2022-08-17T20:55:08.695Z,55.20
2022-08-17T20:58:50.969Z,55.45
2022-08-17T21:02:23.088Z,55.72
2022-08-17T21:06:17.272Z,55.74
2022-08-17T21:09:45.952Z,55.94
2022-08-17T21:17:40.214Z,56.08
2022-08-17T21:21:20.993Z,56.19
2022-08-17T21:25:00.299Z,56.38
2022-08-17T21:29:00.742Z,56.46
2022-08-17T21:32:35.622Z,56.64
2022-08-17T21:36:29.937Z,56.81
2022-08-17T21:39:59.338Z,56.92
2022-08-17T21:43:32.717Z,57.03
2022-08-17T21:47:22.237Z,57.20
2022-08-17T21:51:02.426Z,57.43
2022-08-17T21:54:36.929Z,57.61
2022-08-17T21:58:13.928Z,57.92
2022-08-17T22:01:44.686Z,58.10
2022-08-17T22:05:30.297Z,58.18
2022-08-17T22:09:17.845Z,58.42
2022-08-17T22:13:16.474Z,58.60
2022-08-17T22:16:44.661Z,58.63
2022-08-17T22:20:19.042Z,58.87
2022-08-17T22:24:08.378Z,58.95
2022-08-17T22:27:51.666Z,58.97
2022-08-17T22:31:25.588Z,59.04
2022-08-17T22:35:35.733Z,59.26
2022-08-17T22:39:24.333Z,59.33
2022-08-17T22:42:55.038Z,59.43
2022-08-17T22:46:25.898Z,59.59
2022-08-17T22:49:58.607Z,59.75
2022-08-17T22:53:43.825Z,59.96
2022-08-17T22:57:34.762Z,59.95
2022-08-17T23:01:26.985Z,60.19
2022-08-17T23:04:57.615Z,60.30
2022-08-17T23:08:24.821Z,60.26
2022-08-17T23:11:58.976Z,60.45
2022-08-17T23:15:32.968Z,60.58
2022-08-17T23:19:00.861Z,60.72
2022-08-17T23:22:31.791Z,60.56
2022-08-17T23:25:59.237Z,60.79
2022-08-17T23:29:29.745Z,60.75
2022-08-17T23:33:00.062Z,60.98
2022-08-17T23:40:33.880Z,61.05
2022-08-17T23:44:02.515Z,61.07
2022-08-17T23:47:29.552Z,61.22
2022-08-17T23:50:59.406Z,61.33
2022-08-17T23:54:44.110Z,61.45
2022-08-17T23:58:11.539Z,61.66
